Time;durP1;ratioP1;P1;durP2;ratioP2;P2;SDS_P1;SDS_P2;PMS_P1;PMS_P2;Temp;Humidity;BMP_temperature;BMP_pressure;BME280_temperature;BME280_humidity;BME280_pressure;Samples;Min_cycle;Max_cycle;Signal;HPM_P1;HPM_P2
2022/03/03 00:00:16;;;;;;;22.45;13.65;;;;;;;0.35;73.71;101869.19;5247261;28;20032;-67
2022/03/03 00:02:48;;;;;;;25.02;14.43;;;;;;;0.36;73.31;101864.81;5243073;28;20035;-67
2022/03/03 00:05:19;;;;;;;21.48;13.75;;;;;;;0.36;73.42;101864.81;5254037;28;20025;-67
2022/03/03 00:07:50;;;;;;;20.80;13.88;;;;;;;0.35;73.17;101860.47;5252596;28;20067;-67
2022/03/03 00:10:21;;;;;;;23.10;14.32;;;;;;;0.33;73.24;101859.63;5239156;28;20030;-67
2022/03/03 00:12:53;;;;;;;21.17;13.68;;;;;;;0.27;73.28;101854.47;5250808;28;20033;-67
2022/03/03 00:15:24;;;;;;;25.88;14.77;;;;;;;0.26;73.73;101852.75;5248674;28;20117;-67
2022/03/03 00:17:55;;;;;;;24.33;15.00;;;;;;;0.27;74.11;101855.34;5250655;28;20079;-67
2022/03/03 00:20:27;;;;;;;23.40;13.60;;;;;;;0.21;73.36;101854.56;5258062;28;20470;-67
2022/03/03 00:22:58;;;;;;;22.10;14.85;;;;;;;0.20;73.66;101848.47;5245367;28;20030;-67
2022/03/03 00:25:29;;;;;;;24.63;15.15;;;;;;;0.20;73.82;101851.09;5246970;28;20121;-67
2022/03/03 00:28:04;;;;;;;21.95;14.40;;;;;;;0.11;73.65;101852.09;5253006;28;20025;-67
2022/03/03 00:30:35;;;;;;;23.98;14.23;;;;;;;0.07;74.48;101854.81;5240277;28;20029;-67
2022/03/03 00:33:07;;;;;;;22.67;14.20;;;;;;;0.11;74.46;101844.22;5248511;28;20391;-68
2022/03/03 00:35:38;;;;;;;24.15;14.98;;;;;;;0.03;74.11;101847.91;5242780;28;20550;-67
2022/03/03 00:38:10;;;;;;;23.52;14.65;;;;;;;-0.01;74.42;101854.94;5255871;28;20032;-67
2022/03/03 00:40:41;;;;;;;22.83;14.20;;;;;;;0.03;74.82;101847.91;5247037;28;20420;-67
2022/03/03 00:43:12;;;;;;;25.35;16.02;;;;;;;-0.02;75.41;101855.81;5256822;28;20037;-67
2022/03/03 00:45:43;;;;;;;25.92;15.07;;;;;;;-0.01;75.66;101852.31;5252926;28;20025;-67
2022/03/03 00:48:15;;;;;;;25.52;15.40;;;;;;;-0.03;75.60;101848.84;5255118;28;20142;-67
2022/03/03 00:50:46;;;;;;;25.02;15.80;;;;;;;-0.11;75.27;101845.50;5252837;28;20033;-67
2022/03/03 00:53:18;;;;;;;24.92;15.65;;;;;;;-0.09;77.35;101851.59;5252179;28;20033;-67
2022/03/03 00:55:49;;;;;;;24.10;15.77;;;;;;;-0.14;78.16;101842.91;5246657;28;20538;-67
2022/03/03 00:58:20;;;;;;;28.60;15.77;;;;;;;-0.21;77.86;101839.53;5247082;28;20415;-67
2022/03/03 01:00:52;;;;;;;27.13;16.27;;;;;;;-0.28;78.20;101844.00;5246315;28;20052;-67
2022/03/03 01:03:23;;;;;;;27.38;16.40;;;;;;;-0.29;79.69;101842.28;5251314;28;20024;-67
2022/03/03 01:05:54;;;;;;;24.48;15.45;;;;;;;-0.35;79.21;101834.47;5240133;28;20025;-67
2022/03/03 01:08:26;;;;;;;25.25;16.45;;;;;;;-0.37;79.06;101835.41;5243900;28;20090;-67
2022/03/03 01:10:57;;;;;;;25.95;15.98;;;;;;;-0.43;79.00;101838.97;5239112;28;20461;-67
2022/03/03 01:13:28;;;;;;;27.88;16.02;;;;;;;-0.40;79.03;101841.56;5242457;28;20026;-67
2022/03/03 01:16:00;;;;;;;27.35;16.55;;;;;;;-0.41;79.80;101831.97;5244256;28;20498;-67
2022/03/03 01:18:31;;;;;;;27.50;17.10;;;;;;;-0.51;81.77;101836.47;5242992;28;20067;-67
2022/03/03 01:21:03;;;;;;;27.58;16.27;;;;;;;-0.55;80.73;101840.03;5235482;28;20550;-67
2022/03/03 01:23:34;;;;;;;26.10;16.80;;;;;;;-0.53;82.63;101843.50;5241936;28;20709;-67
2022/03/03 01:26:05;;;;;;;27.45;16.63;;;;;;;-0.57;82.94;101835.72;5236608;28;20033;-67
2022/03/03 01:28:36;;;;;;;27.83;16.75;;;;;;;-0.67;80.73;101841.06;5241115;28;20669;-67
2022/03/03 01:31:08;;;;;;;26.70;17.15;;;;;;;-0.71;80.47;101839.38;5241546;28;20086;-67
2022/03/03 01:33:39;;;;;;;28.95;17.73;;;;;;;-0.76;81.46;101830.72;5242556;28;20040;-67
2022/03/03 01:36:10;;;;;;;28.80;17.83;;;;;;;-0.74;82.80;101828.06;5245260;28;20041;-67
2022/03/03 01:38:41;;;;;;;27.08;17.88;;;;;;;-0.78;81.85;101826.38;5243123;28;20037;-67
2022/03/03 01:41:13;;;;;;;30.70;18.13;;;;;;;-0.79;84.10;101820.25;5244690;28;20025;-67
2022/03/03 01:43:44;;;;;;;27.15;17.92;;;;;;;-0.82;82.01;101818.56;5252419;28;20025;-67
2022/03/03 01:46:16;;;;;;;28.33;18.52;;;;;;;-0.83;82.97;101811.56;5244099;28;20586;-67
2022/03/03 01:48:48;;;;;;;29.17;18.48;;;;;;;-0.81;83.54;101803.69;5244453;28;20060;-67
2022/03/03 01:51:19;;;;;;;31.23;19.33;;;;;;;-0.89;83.84;101806.41;5242068;28;20027;-67
2022/03/03 01:53:51;;;;;;;29.35;19.27;;;;;;;-0.92;83.40;101801.25;5237672;28;20502;-67
2022/03/03 01:56:22;;;;;;;29.20;19.25;;;;;;;-0.92;84.20;101808.22;5240947;28;20083;-67
2022/03/03 01:58:54;;;;;;;29.05;19.13;;;;;;;-0.92;84.21;101800.34;5240746;28;20048;-67
2022/03/03 02:01:25;;;;;;;29.23;18.38;;;;;;;-0.95;83.17;101801.28;5245111;28;20028;-68
2022/03/03 02:03:57;;;;;;;31.23;18.95;;;;;;;-0.99;82.86;101794.34;5240932;28;20074;-67
2022/03/03 02:06:29;;;;;;;28.50;18.42;;;;;;;-1.08;83.15;101789.22;5245658;28;20029;-67
2022/03/03 02:09:00;;;;;;;31.85;18.85;;;;;;;-1.06;84.05;101790.91;5242010;28;20099;-67
2022/03/03 02:11:32;;;;;;;27.77;17.42;;;;;;;-1.14;84.72;101781.44;5248006;28;20411;-67
2022/03/03 02:14:04;;;;;;;29.67;18.92;;;;;;;-1.16;84.51;101778.00;5242154;28;20025;-67
2022/03/03 02:16:35;;;;;;;26.90;17.25;;;;;;;-1.17;84.74;101776.25;5243552;28;20053;-67
2022/03/03 02:19:07;;;;;;;29.83;18.38;;;;;;;-1.23;84.77;101780.69;5246029;28;20665;-67
2022/03/03 02:21:38;;;;;;;31.73;19.13;;;;;;;-1.27;85.11;101778.97;5242400;28;20089;-67
2022/03/03 02:24:09;;;;;;;28.85;18.08;;;;;;;-1.18;85.84;101783.22;5254928;28;20029;-67
2022/03/03 02:26:42;;;;;;;30.77;18.75;;;;;;;-1.32;84.80;101775.56;5257734;28;20053;-67
2022/03/03 02:29:13;;;;;;;29.10;18.90;;;;;;;-1.26;85.72;101774.63;5252653;28;20036;-67
2022/03/03 02:31:45;;;;;;;30.00;18.48;;;;;;;-1.31;85.39;101773.81;5256180;28;20037;-67
2022/03/03 02:34:17;;;;;;;29.15;17.67;;;;;;;-1.30;85.89;101767.69;5245301;28;20047;-67
2022/03/03 02:36:49;;;;;;;28.52;18.15;;;;;;;-1.35;86.07;101767.72;5240531;28;20125;-67
2022/03/03 02:39:21;;;;;;;29.63;18.58;;;;;;;-1.40;85.99;101770.41;5253652;28;20397;-68
2022/03/03 02:41:52;;;;;;;28.30;17.90;;;;;;;-1.44;85.26;101767.84;5252270;28;20043;-68
2022/03/03 02:44:23;;;;;;;31.73;19.20;;;;;;;-1.46;86.21;101772.22;5250392;28;20026;-68
2022/03/03 02:46:54;;;;;;;33.30;17.85;;;;;;;-1.47;86.38;101771.38;5244315;28;20055;-67
2022/03/03 02:49:26;;;;;;;26.20;17.27;;;;;;;-1.47;86.23;101767.88;5252388;28;20516;-67
2022/03/03 02:51:58;;;;;;;28.80;18.17;;;;;;;-1.53;86.55;101763.59;5251171;28;20601;-68
2022/03/03 02:54:29;;;;;;;27.60;17.42;;;;;;;-1.55;86.44;101757.50;5242775;28;20037;-67
2022/03/03 02:59:51;;;;;;;33.33;18.95;;;;;;;-1.56;86.87;101760.13;5242518;28;20471;-67
2022/03/03 03:02:22;;;;;;;27.85;17.85;;;;;;;-1.59;87.39;101763.66;5254670;28;20041;-67
2022/03/03 03:04:54;;;;;;;30.83;18.55;;;;;;;-1.57;87.63;101756.66;5263003;28;20047;-67
2022/03/03 03:07:25;;;;;;;30.08;18.95;;;;;;;-1.61;88.00;101754.94;5247388;28;20533;-67
2022/03/03 03:09:56;;;;;;;31.65;19.23;;;;;;;-1.63;89.00;101756.72;5242205;28;20538;-67
2022/03/03 03:12:27;;;;;;;31.27;18.92;;;;;;;-1.64;88.52;101765.47;5252464;28;20037;-67
2022/03/03 03:14:59;;;;;;;31.98;18.92;;;;;;;-1.69;87.50;101762.03;5246277;28;20140;-67
2022/03/03 03:17:30;;;;;;;30.52;17.83;;;;;;;-1.69;86.77;101764.63;5246185;28;20127;-67
2022/03/03 03:20:02;;;;;;;31.75;18.40;;;;;;;-1.64;86.91;101753.25;5250872;28;20028;-68
2022/03/03 03:22:36;;;;;;;28.80;18.35;;;;;;;-1.62;87.07;101764.56;5254312;28;20032;-68
2022/03/03 03:25:10;;;;;;;30.48;18.73;;;;;;;-1.67;87.12;101760.25;5239756;28;20432;-67
2022/03/03 03:27:42;;;;;;;32.45;18.92;;;;;;;-1.63;86.87;101743.63;5251135;28;20036;-68
2022/03/03 03:30:13;;;;;;;30.17;17.27;;;;;;;-1.62;87.02;101745.38;5240780;28;20033;-67
2022/03/03 03:32:45;;;;;;;31.85;19.60;;;;;;;-1.70;86.55;101740.22;5245379;28;20025;-68
2022/03/03 03:35:16;;;;;;;32.75;19.00;;;;;;;-1.72;87.43;101739.38;5250898;28;20041;-67
2022/03/03 03:37:47;;;;;;;31.98;18.58;;;;;;;-1.75;87.97;101744.63;5246114;28;20091;-67
2022/03/03 03:40:19;;;;;;;30.77;19.10;;;;;;;-1.74;89.42;101745.53;5254784;28;20037;-67
2022/03/03 03:42:50;;;;;;;34.63;19.58;;;;;;;-1.80;88.53;101744.69;5257691;28;20086;-67
2022/03/03 03:45:21;;;;;;;32.60;19.00;;;;;;;-1.79;89.25;101735.09;5242575;28;20028;-67
2022/03/03 03:47:53;;;;;;;31.20;19.67;;;;;;;-1.83;89.39;101736.00;5253832;28;20087;-68
2022/03/03 03:50:24;;;;;;;28.77;18.48;;;;;;;-1.88;89.44;101732.56;5253862;28;20414;-67
2022/03/03 03:52:55;;;;;;;32.38;19.88;;;;;;;-1.85;89.50;101727.31;5246257;28;20033;-67
2022/03/03 03:55:27;;;;;;;31.15;19.08;;;;;;;-1.88;89.52;101727.34;5253557;28;20060;-68
2022/03/03 03:57:58;;;;;;;32.65;19.25;;;;;;;-1.89;89.64;101723.88;5245345;28;20286;-68
2022/03/03 04:00:29;;;;;;;32.15;19.10;;;;;;;-1.89;90.46;101723.00;5250952;28;20025;-67
2022/03/03 04:03:01;;;;;;;30.48;19.55;;;;;;;-1.92;90.94;101729.13;5247980;28;20041;-67
2022/03/03 04:05:32;;;;;;;33.30;19.42;;;;;;;-1.99;90.25;101724.84;5240086;28;20021;-68
2022/03/03 04:08:03;;;;;;;33.03;19.90;;;;;;;-2.02;90.28;101722.25;5236506;28;20735;-67
2022/03/03 04:10:35;;;;;;;33.43;18.90;;;;;;;-2.04;90.25;101737.09;5244100;28;20032;-68
2022/03/03 04:13:06;;;;;;;29.85;18.10;;;;;;;-1.98;90.35;101734.41;5258860;28;20568;-67
2022/03/03 04:15:38;;;;;;;29.60;18.85;;;;;;;-1.99;89.91;101736.19;5242200;28;20073;-67
2022/03/03 04:18:10;;;;;;;30.73;18.40;;;;;;;-1.98;89.49;101731.81;5259121;28;20033;-68
2022/03/03 04:20:41;;;;;;;34.33;20.20;;;;;;;-1.94;89.44;101723.03;5245324;28;20052;-68
2022/03/03 04:23:16;;;;;;;35.07;19.57;;;;;;;-1.91;89.55;101709.94;5261313;28;20158;-67
2022/03/03 04:25:48;;;;;;;31.17;18.70;;;;;;;-1.89;89.09;101715.16;5247075;28;20501;-67
2022/03/03 04:28:19;;;;;;;35.42;20.95;;;;;;;-1.88;89.53;101709.03;5250424;28;20033;-67
2022/03/03 04:30:50;;;;;;;32.30;17.95;;;;;;;-1.95;90.19;101702.16;5255366;28;20056;-67
2022/03/03 04:33:22;;;;;;;33.03;18.83;;;;;;;-1.93;90.07;101703.88;5251190;28;20037;-67
2022/03/03 04:35:53;;;;;;;28.65;18.65;;;;;;;-1.97;89.90;101707.41;5253089;28;20083;-68
2022/03/03 04:38:25;;;;;;;31.13;19.50;;;;;;;-1.96;90.09;101703.88;5255683;28;20376;-67
2022/03/03 04:40:57;;;;;;;33.10;19.45;;;;;;;-2.05;90.03;101699.63;5251488;28;20123;-67
2022/03/03 04:43:28;;;;;;;29.65;18.15;;;;;;;-2.03;90.12;101697.00;5248853;28;20037;-68
2022/03/03 04:45:59;;;;;;;30.50;17.38;;;;;;;-2.06;89.62;101697.03;5239267;28;20040;-67
2022/03/03 04:48:31;;;;;;;33.50;19.10;;;;;;;-2.05;90.44;101697.03;5263035;28;20497;-67
2022/03/03 04:51:02;;;;;;;29.33;17.60;;;;;;;-2.07;90.74;101688.31;5251036;28;20056;-67
2022/03/03 04:53:33;;;;;;;32.15;18.90;;;;;;;-2.18;90.78;101683.19;5245382;28;20375;-67
2022/03/03 04:56:05;;;;;;;29.83;18.77;;;;;;;-2.19;90.72;101684.09;5249935;28;20035;-67
2022/03/03 04:58:36;;;;;;;31.60;18.00;;;;;;;-2.18;91.67;101685.81;5261154;28;20530;-68
2022/03/03 05:01:07;;;;;;;30.80;18.43;;;;;;;-2.22;91.39;101684.13;5254436;28;20432;-67
2022/03/03 05:03:39;;;;;;;31.10;18.33;;;;;;;-2.24;91.79;101685.88;5252829;28;20033;-67
2022/03/03 05:06:10;;;;;;;30.13;18.27;;;;;;;-2.27;91.29;101685.91;5253527;28;20020;-67
2022/03/03 05:08:41;;;;;;;31.67;18.60;;;;;;;-2.28;91.95;101688.53;5245028;28;20503;-67
2022/03/03 05:11:12;;;;;;;31.10;18.57;;;;;;;-2.27;91.93;101690.28;5247280;28;20029;-68
2022/03/03 05:13:44;;;;;;;30.47;19.10;;;;;;;-2.30;92.11;101691.19;5244680;28;20036;-67
2022/03/03 05:16:15;;;;;;;34.27;19.47;;;;;;;-2.34;92.20;101699.03;5244894;28;20156;-67
2022/03/03 05:18:46;;;;;;;33.00;18.17;;;;;;;-2.39;92.22;101699.09;5248382;28;20411;-67
2022/03/03 05:21:18;;;;;;;32.47;18.63;;;;;;;-2.34;91.83;101701.66;5249721;28;20041;-67
2022/03/03 05:23:49;;;;;;;31.45;19.15;;;;;;;-2.40;91.80;101694.72;5241878;28;20489;-67
2022/03/03 05:26:20;;;;;;;33.40;19.53;;;;;;;-2.47;92.15;101687.84;5259237;28;20098;-67
2022/03/03 05:28:52;;;;;;;34.70;19.17;;;;;;;-2.48;92.16;101697.41;5259409;28;20033;-67
2022/03/03 05:31:23;;;;;;;29.10;18.23;;;;;;;-2.50;91.78;101698.31;5250723;28;20044;-67
2022/03/03 05:33:54;;;;;;;30.27;18.20;;;;;;;-2.54;92.11;101701.84;5243004;28;20601;-67
2022/03/03 05:36:26;;;;;;;31.17;18.60;;;;;;;-2.51;92.68;101697.47;5243841;28;20242;-68
2022/03/03 05:38:58;;;;;;;33.00;19.00;;;;;;;-2.50;93.33;101711.38;5240751;28;20036;-68
2022/03/03 05:41:29;;;;;;;30.83;18.37;;;;;;;-2.58;92.88;101708.84;5246355;28;20029;-68
2022/03/03 05:44:01;;;;;;;30.37;17.87;;;;;;;-2.60;92.37;101697.53;5245524;28;20044;-67
2022/03/03 05:46:32;;;;;;;30.93;18.40;;;;;;;-2.61;93.05;101703.63;5244514;28;20524;-68
2022/03/03 05:49:04;;;;;;;31.07;18.10;;;;;;;-2.63;93.21;101711.50;5261722;28;20099;-68
2022/03/03 05:51:36;;;;;;;28.20;18.10;;;;;;;-2.65;92.82;101707.16;5243667;28;20434;-67
2022/03/03 05:54:07;;;;;;;30.63;17.13;;;;;;;-2.59;93.35;101710.59;5246716;28;20031;-67
2022/03/03 05:56:41;;;;;;;30.90;17.73;;;;;;;-2.66;93.60;101708.03;5246381;28;20108;-67
2022/03/03 05:59:13;;;;;;;;;;;;;;;-2.62;92.11;101705.38;5245327;28;20037;-67
2022/03/03 06:01:45;;;;;;;30.20;17.90;;;;;;;-2.66;93.08;101705.44;5247505;28;20036;-68
2022/03/03 06:04:16;;;;;;;28.93;17.43;;;;;;;-2.71;93.12;101700.22;5248915;28;20090;-67
2022/03/03 06:07:04;;;;;;;31.57;18.77;;;;;;;-2.72;93.32;101705.44;5250224;28;20029;-67
2022/03/03 06:09:36;;;;;;;30.97;17.90;;;;;;;-2.66;93.60;101695.84;5244435;28;20036;-67
2022/03/03 06:12:19;;;;;;;28.77;18.20;;;;;;;-2.69;93.33;101698.47;5256981;28;20065;-68
2022/03/03 06:14:53;;;;;;;31.40;18.27;;;;;;;-2.71;93.36;101694.13;5250708;28;20521;-67
2022/03/03 06:17:25;;;;;;;31.13;18.17;;;;;;;-2.69;92.70;101692.38;5265221;28;20043;-67
2022/03/03 06:20:00;;;;;;;28.33;17.93;;;;;;;-2.67;93.16;101688.88;5264663;28;20024;-68
2022/03/03 06:22:31;;;;;;;30.67;18.37;;;;;;;-2.64;92.68;101698.44;5258896;28;20086;-68
2022/03/03 06:25:05;;;;;;;30.77;18.67;;;;;;;-2.60;92.44;101693.16;5249524;28;20029;-68
2022/03/03 06:27:37;;;;;;;30.80;18.38;;;;;;;-2.60;92.24;101687.94;5251510;28;20932;-68
2022/03/03 06:30:08;;;;;;;29.80;18.30;;;;;;;-2.60;92.25;101693.16;5253890;28;20064;-68
2022/03/03 06:32:40;;;;;;;33.05;19.00;;;;;;;-2.64;92.34;101691.47;5248080;28;20372;-68
2022/03/03 06:35:11;;;;;;;27.30;17.30;;;;;;;-2.60;92.25;101702.75;5250900;28;20175;-68
2022/03/03 06:37:43;;;;;;;29.30;17.83;;;;;;;-2.64;92.34;101701.06;5254159;28;20028;-68
2022/03/03 06:40:14;;;;;;;26.80;17.37;;;;;;;-2.65;92.16;101705.38;5248098;28;20522;-68
2022/03/03 06:42:45;;;;;;;30.00;17.75;;;;;;;-2.61;92.93;101701.91;5245257;28;20067;-68
2022/03/03 06:45:17;;;;;;;31.03;18.73;;;;;;;-2.60;92.44;101706.22;5247884;28;20036;-68
2022/03/03 06:47:49;;;;;;;27.63;16.50;;;;;;;-2.63;92.60;101705.38;5244618;28;20406;-68
2022/03/03 06:50:21;;;;;;;29.50;17.87;;;;;;;-2.59;92.38;101705.38;5250657;28;20037;-68
2022/03/03 06:52:53;;;;;;;27.47;17.20;;;;;;;-2.58;92.11;101712.31;5254379;28;20489;-68
2022/03/03 06:55:26;;;;;;;28.87;17.57;;;;;;;-2.62;91.90;101713.22;5258858;28;20036;-68
2022/03/03 06:57:58;;;;;;;30.43;17.77;;;;;;;-2.62;91.66;101714.97;5257400;28;20040;-68
2022/03/03 07:00:34;;;;;;;29.80;17.70;;;;;;;-2.53;91.91;101719.22;5238430;28;20467;-68
2022/03/03 07:03:05;;;;;;;29.23;18.50;;;;;;;-2.49;91.79;101726.16;5250066;28;20025;-68
2022/03/03 07:05:36;;;;;;;28.07;18.00;;;;;;;-2.49;91.30;101721.84;5252450;28;20414;-68
2022/03/03 07:08:10;;;;;;;30.83;18.63;;;;;;;-2.49;91.36;101718.31;5248189;28;20239;-68
2022/03/03 07:10:43;;;;;;;28.33;17.87;;;;;;;-2.48;91.34;101723.53;5248724;28;20029;-68
2022/03/03 07:13:17;;;;;;;30.77;18.80;;;;;;;-2.50;91.58;101724.44;5247697;28;20060;-68
2022/03/03 07:15:51;;;;;;;33.55;18.27;;;;;;;-2.42;91.60;101733.09;5254171;28;20458;-68
2022/03/03 07:18:35;;;;;;;31.00;18.55;;;;;;;-2.43;91.44;101731.38;5250377;28;20033;-68
2022/03/03 07:21:20;;;;;;;32.15;18.35;;;;;;;-2.39;90.83;101728.69;5248430;28;20033;-68
2022/03/03 07:24:02;;;;;;;32.95;19.05;;;;;;;-2.36;90.74;101722.56;5249987;28;20457;-68
2022/03/03 07:26:34;;;;;;;31.43;18.27;;;;;;;-2.29;90.97;101724.25;5250639;28;20041;-68
2022/03/03 07:29:09;;;;;;;32.45;17.92;;;;;;;-2.20;90.54;101726.78;5251111;28;20321;-68
2022/03/03 07:31:50;;;;;;;32.73;19.07;;;;;;;-2.10;90.25;101737.16;5249279;28;20536;-68
2022/03/03 07:34:29;;;;;;;30.97;18.33;;;;;;;-2.03;90.00;101729.25;5253011;28;20029;-68
2022/03/03 07:37:10;;;;;;;31.07;18.17;;;;;;;-1.92;89.49;101729.13;5248165;28;20028;-68
2022/03/03 07:39:43;;;;;;;30.80;18.33;;;;;;;-1.88;89.45;101724.72;5248671;28;20353;-68
2022/03/03 07:42:17;;;;;;;28.00;18.27;;;;;;;-1.79;89.62;101730.72;5249022;28;20025;-68
2022/03/03 07:44:48;;;;;;;;;;;;;;;-1.82;89.37;101732.53;5250721;28;20025;-69
2022/03/03 07:47:21;;;;;;;30.77;17.30;;;;;;;-1.62;88.75;101729.69;5249137;28;20271;-68
2022/03/03 07:49:55;;;;;;;30.93;17.60;;;;;;;-1.47;87.79;101732.09;5250272;28;20041;-68
2022/03/03 07:52:26;;;;;;;28.33;17.27;;;;;;;-1.36;87.06;101729.38;5249080;28;20033;-69
2022/03/03 07:54:58;;;;;;;31.73;17.00;;;;;;;-1.22;86.21;101730.03;5248382;28;20070;-69
2022/03/03 07:57:40;;;;;;;28.48;16.83;;;;;;;-1.16;85.99;101726.47;5246731;28;20550;-69
2022/03/03 08:00:15;;;;;;;30.20;17.30;;;;;;;-0.97;85.32;101728.84;5250817;28;20487;-68
2022/03/03 08:02:47;;;;;;;;;;;;;;;-0.99;86.74;101734.97;5251213;28;20029;-69
2022/03/03 08:05:21;;;;;;;32.83;17.27;;;;;;;-0.88;84.86;101737.44;5245481;28;19916;-68
2022/03/03 08:07:55;;;;;;;28.10;16.70;;;;;;;-0.75;83.91;101739.84;5248828;28;20029;-69
2022/03/03 08:10:28;;;;;;;27.83;17.70;;;;;;;-0.75;85.03;101743.34;5246297;28;20032;-69
2022/03/03 08:12:59;;;;;;;27.55;17.35;;;;;;;-0.70;83.86;101746.75;5245156;28;20060;-68
2022/03/03 08:15:31;;;;;;;31.27;18.10;;;;;;;-0.62;83.52;101738.78;5255094;28;20133;-68
2022/03/03 08:18:02;;;;;;;30.95;17.15;;;;;;;-0.52;83.49;101735.13;5250912;28;20029;-69
2022/03/03 08:20:35;;;;;;;27.30;16.40;;;;;;;-0.30;81.96;101733.03;5252500;28;20103;-68
2022/03/03 08:23:08;;;;;;;26.60;16.47;;;;;;;-0.18;81.78;101731.09;5251390;28;20486;-68
2022/03/03 08:25:39;;;;;;;27.92;16.38;;;;;;;-0.13;81.30;101727.50;5250713;28;20450;-69
2022/03/03 08:28:11;;;;;;;26.50;16.45;;;;;;;0.03;79.86;101722.81;5252853;28;20199;-69
2022/03/03 08:30:44;;;;;;;27.98;15.07;;;;;;;0.19;79.13;101721.66;5255027;28;20036;-69
2022/03/03 08:33:25;;;;;;;29.27;16.63;;;;;;;0.32;79.07;101724.03;5251746;28;20463;-68
2022/03/03 08:36:00;;;;;;;28.20;16.05;;;;;;;0.35;78.25;101729.22;5250583;28;20111;-69
2022/03/03 08:38:45;;;;;;;27.70;15.00;;;;;;;0.43;77.88;101721.19;5252207;28;20467;-69
2022/03/03 08:41:22;;;;;;;25.48;15.80;;;;;;;0.52;76.62;101721.00;5252219;28;20036;-69
2022/03/03 08:43:55;;;;;;;26.27;15.18;;;;;;;0.66;77.07;101721.56;5254001;28;20028;-69
2022/03/03 08:46:26;;;;;;;28.13;15.65;;;;;;;0.75;76.07;101718.75;5253327;28;20033;-69
2022/03/03 08:49:00;;;;;;;23.92;15.25;;;;;;;0.75;77.39;101728.41;5255348;28;20547;-69
2022/03/03 08:51:32;;;;;;;28.23;16.05;;;;;;;0.91;75.96;101731.56;5253828;28;20040;-69
2022/03/03 08:54:04;;;;;;;25.95;15.43;;;;;;;1.05;74.25;101732.09;5253095;28;20028;-69
2022/03/03 08:56:35;;;;;;;23.35;15.00;;;;;;;1.14;74.49;101728.41;5252136;28;20599;-69
2022/03/03 08:59:07;;;;;;;37.63;14.07;;;;;;;1.26;73.59;101733.38;5255570;28;20024;-69
2022/03/03 09:01:38;;;;;;;26.55;14.02;;;;;;;1.29;74.38;101735.94;5250794;28;20039;-69
2022/03/03 09:04:09;;;;;;;24.95;15.07;;;;;;;1.45;72.87;101735.56;5253024;28;20024;-69
2022/03/03 09:06:41;;;;;;;23.17;13.95;;;;;;;1.60;72.26;101737.81;5250591;28;20064;-69
2022/03/03 09:09:12;;;;;;;24.25;13.77;;;;;;;1.70;70.96;101730.56;5251601;28;20087;-68
2022/03/03 09:11:44;;;;;;;21.40;13.68;;;;;;;1.83;70.69;101731.97;5253895;28;20125;-69
2022/03/03 09:14:15;;;;;;;25.55;13.75;;;;;;;2.02;70.54;101723.63;5253116;28;20519;-69
2022/03/03 09:16:46;;;;;;;21.25;13.52;;;;;;;2.15;69.67;101732.91;5250813;28;20060;-69
2022/03/03 09:19:18;;;;;;;22.90;14.15;;;;;;;2.22;69.51;101731.81;5254001;28;20054;-69
2022/03/03 09:21:49;;;;;;;22.35;13.05;;;;;;;2.37;67.90;101729.69;5256369;28;20028;-69
2022/03/03 09:24:20;;;;;;;20.30;13.43;;;;;;;2.46;67.92;101730.28;5252139;28;20033;-69
2022/03/03 09:26:52;;;;;;;24.58;13.32;;;;;;;2.47;68.87;101726.72;5252620;28;20395;-69
2022/03/03 09:29:23;;;;;;;21.83;13.63;;;;;;;2.57;68.31;101718.56;5248338;28;20051;-69
2022/03/03 09:31:55;;;;;;;21.88;13.73;;;;;;;2.70;67.62;101714.66;5252565;28;20029;-69
2022/03/03 09:34:28;;;;;;;21.95;14.10;;;;;;;2.77;67.96;101721.47;5255361;28;20040;-69
2022/03/03 09:36:59;;;;;;;20.40;13.25;;;;;;;2.97;66.01;101712.09;5252252;28;20028;-69
2022/03/03 09:39:30;;;;;;;23.52;13.60;;;;;;;3.09;65.29;101712.59;5250941;28;20024;-69
2022/03/03 09:42:02;;;;;;;22.08;13.18;;;;;;;3.13;65.14;101714.22;5252022;28;20422;-69
2022/03/03 09:44:33;;;;;;;24.00;14.15;;;;;;;3.20;65.54;101708.75;5248573;28;20159;-69
2022/03/03 09:47:05;;;;;;;21.02;13.25;;;;;;;3.33;64.13;101710.06;5253420;28;20039;-69
2022/03/03 09:49:36;;;;;;;23.90;14.13;;;;;;;3.43;64.60;101708.00;5253651;28;20059;-69
2022/03/03 09:52:18;;;;;;;22.02;13.13;;;;;;;3.53;64.09;101707.66;5252001;28;20059;-69
2022/03/03 09:54:54;;;;;;;22.00;12.93;;;;;;;3.70;62.83;101709.75;5252589;28;20040;-69
2022/03/03 09:57:26;;;;;;;20.40;12.85;;;;;;;3.86;62.02;101704.78;5252141;28;20064;-69
2022/03/03 09:59:57;;;;;;;21.52;12.98;;;;;;;3.95;60.08;101708.00;5249397;28;20402;-69
2022/03/03 10:02:28;;;;;;;22.48;13.20;;;;;;;4.00;61.20;101704.28;5250516;28;20028;-69
2022/03/03 10:05:00;;;;;;;22.83;12.95;;;;;;;4.13;61.85;101707.38;5252750;28;20462;-69
2022/03/03 10:07:31;;;;;;;20.42;13.00;;;;;;;4.26;60.00;101710.44;5249422;28;20498;-69
2022/03/03 10:10:11;;;;;;;17.35;11.90;;;;;;;4.31;59.82;101700.56;5248543;28;20025;-69
2022/03/03 10:12:45;;;;;;;18.33;12.25;;;;;;;4.42;58.73;101705.47;5250732;28;20040;-67
2022/03/03 10:15:18;;;;;;;25.02;12.90;;;;;;;4.62;57.89;101699.41;5252752;28;20194;-66
2022/03/03 10:17:55;;;;;;;18.70;12.07;;;;;;;4.64;59.98;101698.47;5251592;28;20078;-68
2022/03/03 10:20:28;;;;;;;22.45;12.90;;;;;;;4.72;60.31;101701.66;5252064;28;20025;-68
2022/03/03 10:23:00;;;;;;;21.23;12.88;;;;;;;4.83;58.61;101706.53;5249275;28;20546;-67
2022/03/03 10:25:34;;;;;;;21.30;13.38;;;;;;;4.91;58.00;101703.59;5251318;28;20024;-67
2022/03/03 10:28:11;;;;;;;21.92;12.52;;;;;;;5.04;57.41;101693.38;5250135;28;20020;-68
2022/03/03 10:31:04;;;;;;;18.98;11.45;;;;;;;5.03;59.69;101703.09;5253213;28;20040;-68
2022/03/03 10:33:44;;;;;;;18.63;12.10;;;;;;;5.19;56.87;101694.56;5251262;28;20116;-68
2022/03/03 10:36:21;;;;;;;21.85;12.07;;;;;;;5.34;56.45;101693.09;5249174;28;20928;-68
2022/03/03 10:39:01;;;;;;;17.80;11.80;;;;;;;5.37;56.12;101691.19;5250945;28;20175;-68
2022/03/03 10:41:34;;;;;;;16.02;11.75;;;;;;;5.54;53.26;101685.16;5249170;28;20463;-68
2022/03/03 10:44:20;;;;;;;21.52;11.73;;;;;;;5.61;53.34;101683.13;5248935;28;20037;-69
2022/03/03 10:47:02;;;;;;;21.00;12.65;;;;;;;5.72;53.90;101675.59;5249334;28;20037;-69
2022/03/03 10:49:36;;;;;;;19.58;11.70;;;;;;;5.80;52.20;101677.91;5252177;28;20036;-68
2022/03/03 10:52:17;;;;;;;18.23;11.25;;;;;;;5.84;51.87;101677.69;5250364;28;20032;-68
2022/03/03 10:55:04;;;;;;;14.95;10.15;;;;;;;5.96;51.76;101670.19;5250131;28;20036;-68
2022/03/03 10:57:40;;;;;;;17.05;10.95;;;;;;;5.94;54.26;101680.81;5251737;28;20503;-68
2022/03/03 11:00:21;;;;;;;16.58;10.32;;;;;;;6.09;50.50;101680.16;5253027;28;20043;-68
2022/03/03 11:02:57;;;;;;;17.55;10.15;;;;;;;6.19;49.99;101682.41;5247600;28;20395;-68
2022/03/03 11:05:30;;;;;;;17.08;10.65;;;;;;;6.38;48.37;101669.19;5252655;28;20032;-68
2022/03/03 11:08:01;;;;;;;15.95;10.52;;;;;;;6.44;49.52;101676.84;5251046;28;20448;-68
2022/03/03 11:10:33;;;;;;;16.05;10.63;;;;;;;6.46;49.67;101675.88;5251294;28;20028;-68
2022/03/03 11:13:04;;;;;;;16.55;10.15;;;;;;;6.42;48.75;101671.66;5251901;28;20064;-68
2022/03/03 11:15:36;;;;;;;18.38;10.77;;;;;;;6.50;50.09;101678.38;5251363;28;20049;-68
2022/03/03 11:18:08;;;;;;;15.40;10.45;;;;;;;6.53;48.33;101673.78;5250327;28;20041;-68
2022/03/03 11:20:39;;;;;;;18.65;10.50;;;;;;;6.58;47.96;101674.44;5249005;28;20120;-68
2022/03/03 11:23:11;;;;;;;17.58;10.10;;;;;;;6.50;49.78;101673.94;5246312;28;20032;-68
2022/03/03 11:25:46;;;;;;;17.05;10.27;;;;;;;6.72;47.15;101671.16;5250091;28;20135;-68
2022/03/03 11:28:19;;;;;;;12.68;9.85;;;;;;;6.82;46.62;101667.13;5251642;28;20487;-68
2022/03/03 11:30:53;;;;;;;16.10;10.07;;;;;;;6.83;47.20;101660.03;5250850;28;20063;-68
2022/03/03 11:33:27;;;;;;;17.63;10.63;;;;;;;7.06;48.52;101658.94;5252555;28;20115;-68
2022/03/03 11:35:59;;;;;;;19.17;11.70;;;;;;;7.18;48.06;101655.66;5251662;28;20029;-69
2022/03/03 11:39:01;;;;;;;16.45;10.88;;;;;;;7.18;49.13;101655.66;5251374;28;20299;-69